CAMANCHE RESERVOIR (CMN)

Elevation: 236' · MOKELUMNE R basin · Operator: East Bay Municipal Utility District

Provisional data, subject to change.
Query executed Friday at 18:19:38   clock

Select a sensor type for a plot of data.
Note: Reservoir Flows are daily averages.

Earlier

Date RES ELE    STORAGE    RES CHG    TOC STO    ABV TOC    OUTFLOW    INFLOW   
 FEET   AF   AF   AF   AF   CFS   CFS  
02/28/2015 185.17 126960 -442 279090 -- 225 11
03/01/2015 185.07 126570 -407 278750 -152180 225 11
03/02/2015 185.12 126760 215 279030 -152270 223 278
03/03/2015 185.14 126840 92 279280 -152440 238 279
03/04/2015 185.15 126880 36 279500 -152620 266 277
03/05/2015 185.15 126880 -4 279730 -152850 280 297
03/06/2015 185.14 126840 -28 280110 -- 305 279
03/07/2015 185.00 126260 -570 280070 -- 305 11
03/08/2015 184.99 126260 -578 280020 -153760 305 11
03/09/2015 184.72 125210 -1063 279980 -154770 293 20
03/10/2015 184.55 124560 -600 279960 -155400 262 11
03/11/2015 184.46 124210 -354 279900 -155690 233 11
03/12/2015 184.35 123790 -365 279750 -155960 226 11
03/13/2015 184.24 123370 -377 279770 -- 225 11
03/14/2015 184.13 122950 -446 279690 -- 225 11
03/15/2015 184.02 122530 -460 279610 -157080 225 11
03/16/2015 183.91 122110 -411 281675 -159565 225 11
03/17/2015 183.79 121650 -436 283660 -162010 225 11
03/18/2015 183.68 121240 -- 285756 -- 225 11
03/19/2015 183.57 120820 -- 287821 -167001 225 11
03/20/2015 183.45 120370 -- 289896 -- 225 11
03/21/2015 183.34 119960 -- 291792 -- 225 11
03/22/2015 183.23 119550 -- 293637 -174087 225 11
03/23/2015 183.10 119060 -- 295832 -176772 225 11
03/24/2015 182.99 118650 -- 298107 -179457 225 11
03/25/2015 182.90 118320 -- 300125 -181805 225 11
03/26/2015 182.79 117910 -- 301832 -183922 226 11
03/27/2015 -- -- -- -- -- -- --

Later | Latest

Warning! This data is preliminary and subject to revision.

Show CMN Map | Plot CMN Data | 1 Month CMN Data | Real-Time CMN Data | CMN Info